createdAt,value
2023-01-10T00:00:00.142Z,93.8
2023-01-10T00:05:00.217Z,93.7
2023-01-10T00:10:00.145Z,93.9
2023-01-10T00:15:00.132Z,93.9
2023-01-10T00:20:00.136Z,93.9
2023-01-10T00:25:00.130Z,93.9
2023-01-10T00:30:00.158Z,93.9
2023-01-10T00:35:00.113Z,93.9
2023-01-10T00:40:00.103Z,93.9
2023-01-10T00:45:00.096Z,93.9
2023-01-10T00:50:00.116Z,93.8
2023-01-10T00:55:00.133Z,93.8
2023-01-10T01:00:00.164Z,93.7
2023-01-10T01:05:00.153Z,93.5
2023-01-10T01:10:00.125Z,93.4
2023-01-10T01:15:00.142Z,93.4
2023-01-10T01:20:00.111Z,93.3
2023-01-10T01:25:00.143Z,93.3
2023-01-10T01:30:00.129Z,93.3
2023-01-10T01:35:00.128Z,93.4
2023-01-10T01:40:00.115Z,93.4
2023-01-10T01:45:00.097Z,93.4
2023-01-10T01:50:00.138Z,93.3
2023-01-10T01:55:00.135Z,93.4
2023-01-10T02:00:00.166Z,93.5
2023-01-10T02:05:00.105Z,93.6
2023-01-10T02:10:00.140Z,93.6
2023-01-10T02:15:00.147Z,93.7
2023-01-10T02:20:00.123Z,93.6
2023-01-10T02:25:00.118Z,93.6
2023-01-10T02:30:00.154Z,93.6
2023-01-10T02:35:00.129Z,93.6
2023-01-10T02:40:00.146Z,93.6
2023-01-10T02:45:00.124Z,93.6
2023-01-10T02:50:00.131Z,93.6
2023-01-10T02:55:00.248Z,93.6
2023-01-10T03:00:00.149Z,93.6
2023-01-10T03:05:00.168Z,93.7
2023-01-10T03:10:00.145Z,93.6
2023-01-10T03:15:00.150Z,93.6
2023-01-10T03:20:00.109Z,93.6
2023-01-10T03:25:00.124Z,93.6
2023-01-10T03:30:00.148Z,93.6
2023-01-10T03:35:00.114Z,93.6
2023-01-10T03:40:00.127Z,93.7
2023-01-10T03:45:00.109Z,93.8
2023-01-10T03:50:00.155Z,93.9
2023-01-10T03:55:00.132Z,93.9
2023-01-10T04:00:00.195Z,93.9
2023-01-10T04:05:00.114Z,93.8
2023-01-10T04:10:00.178Z,93.7
2023-01-10T04:15:00.135Z,93.7
2023-01-10T04:20:00.125Z,93.7
2023-01-10T04:25:00.124Z,93.6
2023-01-10T04:30:00.131Z,93.5
2023-01-10T04:35:00.144Z,93.5
2023-01-10T04:40:00.126Z,93.4
2023-01-10T04:45:00.120Z,93.4
2023-01-10T04:50:00.115Z,93.4
2023-01-10T04:55:00.182Z,93.4
2023-01-10T05:00:00.157Z,93.4
2023-01-10T05:05:00.094Z,93.4
2023-01-10T05:10:00.108Z,93.4
2023-01-10T05:15:00.119Z,93.4
2023-01-10T05:20:01.121Z,93.4
2023-01-10T05:25:00.137Z,93.4
2023-01-10T05:30:00.145Z,93.3
2023-01-10T05:35:00.136Z,93.4
2023-01-10T05:40:00.145Z,93.4
2023-01-10T05:45:00.124Z,93.4
2023-01-10T05:50:00.144Z,93.5
2023-01-10T05:55:00.139Z,93.4
2023-01-10T06:00:00.157Z,93.4
2023-01-10T06:05:00.110Z,93.4
2023-01-10T06:10:00.120Z,93.4
2023-01-10T06:15:00.116Z,93.5
2023-01-10T06:20:00.096Z,93.4
2023-01-10T06:25:02.310Z,93.4
2023-01-10T06:30:00.119Z,93.3
2023-01-10T06:35:00.137Z,93.3
2023-01-10T06:40:00.120Z,93.3
2023-01-10T06:45:00.135Z,93.3
2023-01-10T06:50:00.149Z,93.3
2023-01-10T06:55:00.126Z,93.4
2023-01-10T07:00:00.129Z,93.4
2023-01-10T07:05:00.119Z,93.4
2023-01-10T07:10:00.123Z,93.3
2023-01-10T07:15:00.117Z,93.3
2023-01-10T07:20:00.123Z,93.2
2023-01-10T07:25:00.112Z,93.1
2023-01-10T07:30:00.145Z,92.9
2023-01-10T07:35:00.136Z,92.8
2023-01-10T07:40:00.147Z,92.7
2023-01-10T07:45:00.131Z,92.7
2023-01-10T07:50:00.132Z,92.6
2023-01-10T07:55:00.134Z,92.5
2023-01-10T08:00:00.194Z,92.4
2023-01-10T08:05:00.136Z,92.3
2023-01-10T08:10:00.127Z,92.3
2023-01-10T08:15:00.160Z,92.2
2023-01-10T08:20:00.134Z,92.1
2023-01-10T08:25:00.107Z,92.1
2023-01-10T08:30:00.163Z,92.1
2023-01-10T08:35:00.168Z,92
2023-01-10T08:40:00.147Z,91.9
2023-01-10T08:45:00.536Z,91.8
2023-01-10T08:50:00.139Z,91.8
2023-01-10T08:55:00.147Z,91.6
2023-01-10T09:00:00.118Z,91.6
2023-01-10T09:05:00.113Z,91.4
2023-01-10T09:10:00.126Z,91
2023-01-10T09:15:00.197Z,90.7
2023-01-10T09:20:00.127Z,90.6
2023-01-10T09:25:00.137Z,90.5
2023-01-10T09:30:00.175Z,90.4
2023-01-10T09:35:00.143Z,90.3
2023-01-10T09:40:00.159Z,90.2
2023-01-10T09:45:00.149Z,90
2023-01-10T09:50:00.166Z,90
2023-01-10T09:55:00.237Z,89.7
2023-01-10T10:00:00.151Z,89.2
2023-01-10T10:05:00.127Z,89
2023-01-10T10:10:00.114Z,88.6
2023-01-10T10:15:00.129Z,88
2023-01-10T10:20:00.136Z,87.6
2023-01-10T10:25:00.127Z,87.3
2023-01-10T10:30:00.122Z,86.7
2023-01-10T10:35:00.140Z,86.7
2023-01-10T10:40:00.166Z,87
2023-01-10T10:45:00.133Z,86.6
2023-01-10T10:50:00.110Z,86.1
2023-01-10T10:55:00.159Z,85.6
2023-01-10T11:00:00.131Z,85.6
2023-01-10T11:05:00.246Z,84.8
2023-01-10T11:10:00.131Z,84.5
2023-01-10T11:15:00.126Z,83.9
2023-01-10T11:20:00.151Z,83.7
2023-01-10T11:25:00.108Z,83.7
2023-01-10T11:30:00.156Z,83.6
2023-01-10T11:35:00.132Z,83.6
2023-01-10T11:40:00.138Z,83.6
2023-01-10T11:45:00.152Z,83.9
2023-01-10T11:50:00.164Z,83.9
2023-01-10T11:55:00.127Z,80.9
2023-01-10T12:00:00.194Z,79.1
2023-01-10T12:05:00.206Z,77.8
2023-01-10T12:10:00.097Z,77.6
2023-01-10T12:15:00.124Z,77.4
2023-01-10T12:20:00.214Z,77.5
2023-01-10T12:25:00.135Z,78.2
2023-01-10T12:30:00.134Z,79
2023-01-10T12:35:00.138Z,79.8
2023-01-10T12:40:00.107Z,80
2023-01-10T12:45:00.113Z,80.2
2023-01-10T12:50:00.155Z,80.3
2023-01-10T12:55:00.138Z,80.2
2023-01-10T13:00:00.148Z,80.5
2023-01-10T13:05:00.139Z,80.3
2023-01-10T13:10:00.124Z,80.5
2023-01-10T13:15:00.149Z,80.7
2023-01-10T13:20:00.135Z,80.6
2023-01-10T13:25:00.150Z,80.9
2023-01-10T13:30:00.126Z,81.2
2023-01-10T13:35:00.137Z,81.3
2023-01-10T13:40:00.149Z,81.4
2023-01-10T13:45:00.089Z,81.5
2023-01-10T13:50:00.131Z,80.8
2023-01-10T13:55:00.135Z,81.3
2023-01-10T14:00:00.313Z,81.3
2023-01-10T14:05:00.097Z,81.7
2023-01-10T14:10:00.124Z,81.9
2023-01-10T14:15:00.139Z,82
2023-01-10T14:20:00.141Z,82
2023-01-10T14:25:00.136Z,82
2023-01-10T14:30:00.129Z,81.8
2023-01-10T14:35:00.135Z,81.8
2023-01-10T14:40:00.141Z,81.9
2023-01-10T14:45:00.118Z,82
2023-01-10T14:50:00.130Z,82.2
2023-01-10T14:55:00.141Z,82.2
2023-01-10T15:00:00.150Z,82.2
2023-01-10T15:05:00.196Z,82.4
2023-01-10T15:10:00.131Z,82.7
2023-01-10T15:15:00.159Z,82.9
2023-01-10T15:20:00.132Z,83.6
2023-01-10T15:25:00.114Z,83.3
2023-01-10T15:30:00.160Z,83.5
2023-01-10T15:35:00.172Z,83.6
2023-01-10T15:40:00.204Z,83.8
2023-01-10T15:45:00.134Z,83.5
2023-01-10T15:50:00.162Z,83.5
2023-01-10T15:55:00.123Z,83.9
2023-01-10T16:00:00.255Z,84.2
2023-01-10T16:05:00.142Z,84.3
2023-01-10T16:10:00.117Z,84.3
2023-01-10T16:15:00.133Z,84.2
2023-01-10T16:20:00.169Z,85.2
2023-01-10T16:25:00.110Z,85.5
2023-01-10T16:30:00.120Z,85
2023-01-10T16:35:00.149Z,85.3
2023-01-10T16:40:00.139Z,85.2
2023-01-10T16:45:00.117Z,85.4
2023-01-10T16:50:00.111Z,85.6
2023-01-10T16:55:00.143Z,86.1
2023-01-10T17:00:00.128Z,86.6
2023-01-10T17:05:00.120Z,87.2
2023-01-10T17:10:00.133Z,87.2
2023-01-10T17:15:00.115Z,87
2023-01-10T17:20:00.132Z,86.6
2023-01-10T17:25:00.101Z,86.5
2023-01-10T17:30:00.141Z,86.2
2023-01-10T17:35:00.134Z,86
2023-01-10T17:40:00.112Z,85.7
2023-01-10T17:45:00.077Z,85.4
2023-01-10T17:50:00.164Z,85.3
2023-01-10T17:55:00.128Z,85
2023-01-10T18:00:00.178Z,84.4
2023-01-10T18:05:00.106Z,84.1
2023-01-10T18:10:00.125Z,83.7
2023-01-10T18:15:00.114Z,83.6
2023-01-10T18:20:00.138Z,84
2023-01-10T18:25:00.157Z,84.3
2023-01-10T18:30:00.143Z,84.5
2023-01-10T18:35:00.132Z,85
2023-01-10T18:40:00.124Z,85.1
2023-01-10T18:45:00.131Z,85.6
2023-01-10T18:50:00.116Z,85.9
2023-01-10T18:55:02.229Z,86.1
2023-01-10T19:00:00.160Z,86.4
2023-01-10T19:05:00.128Z,86.5
2023-01-10T19:10:00.110Z,86.6
2023-01-10T19:15:00.220Z,86.3
2023-01-10T19:20:00.133Z,86.5
2023-01-10T19:25:00.217Z,86.5
2023-01-10T19:30:00.201Z,86.4
2023-01-10T19:35:00.152Z,86.4
2023-01-10T19:40:00.122Z,86.3
2023-01-10T19:45:00.129Z,86.4
2023-01-10T19:50:00.149Z,86.2
2023-01-10T19:55:00.152Z,85.9
2023-01-10T20:00:00.188Z,86.2
2023-01-10T20:05:00.106Z,86.5
2023-01-10T20:10:00.121Z,86.7
2023-01-10T20:15:00.118Z,86.8
2023-01-10T20:20:00.136Z,87
2023-01-10T20:25:00.128Z,87.1
2023-01-10T20:30:00.117Z,87.3
2023-01-10T20:35:00.129Z,87.4
2023-01-10T20:40:00.130Z,87.4
2023-01-10T20:45:00.146Z,87.3
2023-01-10T20:50:00.168Z,87.2
2023-01-10T20:55:00.151Z,86.7
2023-01-10T21:00:00.138Z,87.6
2023-01-10T21:05:00.106Z,87.8
2023-01-10T21:10:00.119Z,88.2
2023-01-10T21:15:00.131Z,88.3
2023-01-10T21:20:00.139Z,88.4
2023-01-10T21:25:00.138Z,88.5
2023-01-10T21:30:00.139Z,87.6
2023-01-10T21:35:00.132Z,88.2
2023-01-10T21:40:00.109Z,88.1
2023-01-10T21:45:00.145Z,88.1
2023-01-10T21:50:00.103Z,88.2
2023-01-10T21:55:00.187Z,87.9
2023-01-10T22:00:00.135Z,87.6
2023-01-10T22:05:00.137Z,87.4
2023-01-10T22:10:00.109Z,87.5
2023-01-10T22:15:00.144Z,87.7
2023-01-10T22:20:00.125Z,87.8
2023-01-10T22:25:00.129Z,87.9
2023-01-10T22:30:00.127Z,88.2
2023-01-10T22:35:00.132Z,88
2023-01-10T22:40:00.113Z,87.9
2023-01-10T22:45:00.122Z,87.9
2023-01-10T22:50:00.106Z,87.8
2023-01-10T22:55:00.128Z,87.5
2023-01-10T23:00:00.178Z,87.6
2023-01-10T23:05:00.112Z,87.5
2023-01-10T23:10:00.117Z,87.3
2023-01-10T23:15:00.151Z,87.2
2023-01-10T23:20:00.121Z,87.3
2023-01-10T23:25:00.136Z,87.4
2023-01-10T23:30:00.119Z,87.2
2023-01-10T23:35:00.163Z,87
2023-01-10T23:40:00.124Z,86.9
2023-01-10T23:45:00.119Z,86.5
2023-01-10T23:50:00.117Z,86.1
2023-01-10T23:55:00.126Z,85.9
